sensor_id;sensor_type;location;lat;lon;timestamp;P1;durP1;ratioP1;P2;durP2;ratioP2
13269;SDS011;6703;51.994;7.570;2023-10-31T00:00:26;20.40;;;10.20;;
13269;SDS011;6703;51.994;7.570;2023-10-31T00:02:54;17.25;;;8.63;;
13269;SDS011;6703;51.994;7.570;2023-10-31T00:05:23;18.90;;;9.45;;
13269;SDS011;6703;51.994;7.570;2023-10-31T00:07:51;18.17;;;8.90;;
13269;SDS011;6703;51.994;7.570;2023-10-31T00:10:18;23.15;;;9.68;;
13269;SDS011;6703;51.994;7.570;2023-10-31T00:12:46;19.48;;;9.75;;
13269;SDS011;6703;51.994;7.570;2023-10-31T00:15:15;20.63;;;9.77;;
13269;SDS011;6703;51.994;7.570;2023-10-31T00:17:44;21.10;;;9.77;;
13269;SDS011;6703;51.994;7.570;2023-10-31T00:20:13;19.67;;;9.40;;
13269;SDS011;6703;51.994;7.570;2023-10-31T00:22:41;21.25;;;9.40;;
13269;SDS011;6703;51.994;7.570;2023-10-31T00:25:09;23.33;;;10.30;;
13269;SDS011;6703;51.994;7.570;2023-10-31T00:27:36;20.98;;;9.68;;
13269;SDS011;6703;51.994;7.570;2023-10-31T00:30:05;25.70;;;10.20;;
13269;SDS011;6703;51.994;7.570;2023-10-31T00:32:34;25.83;;;10.00;;
13269;SDS011;6703;51.994;7.570;2023-10-31T00:35:04;18.08;;;9.00;;
13269;SDS011;6703;51.994;7.570;2023-10-31T00:37:32;17.65;;;8.25;;
13269;SDS011;6703;51.994;7.570;2023-10-31T00:40:02;20.20;;;8.68;;
13269;SDS011;6703;51.994;7.570;2023-10-31T00:42:30;19.35;;;8.07;;
13269;SDS011;6703;51.994;7.570;2023-10-31T00:44:58;13.63;;;7.40;;
13269;SDS011;6703;51.994;7.570;2023-10-31T00:47:27;21.60;;;7.10;;
13269;SDS011;6703;51.994;7.570;2023-10-31T00:49:55;12.57;;;6.75;;
13269;SDS011;6703;51.994;7.570;2023-10-31T00:52:24;13.93;;;6.47;;
13269;SDS011;6703;51.994;7.570;2023-10-31T00:54:52;14.48;;;6.18;;
13269;SDS011;6703;51.994;7.570;2023-10-31T00:57:21;10.80;;;6.00;;
13269;SDS011;6703;51.994;7.570;2023-10-31T00:59:48;16.25;;;5.95;;
13269;SDS011;6703;51.994;7.570;2023-10-31T01:02:17;10.55;;;5.40;;
13269;SDS011;6703;51.994;7.570;2023-10-31T01:04:45;10.33;;;5.43;;
13269;SDS011;6703;51.994;7.570;2023-10-31T01:07:13;11.20;;;4.95;;
13269;SDS011;6703;51.994;7.570;2023-10-31T01:09:44;9.38;;;4.68;;
13269;SDS011;6703;51.994;7.570;2023-10-31T01:12:13;8.00;;;4.45;;
13269;SDS011;6703;51.994;7.570;2023-10-31T01:14:40;11.88;;;4.10;;
13269;SDS011;6703;51.994;7.570;2023-10-31T01:17:09;7.13;;;3.75;;
13269;SDS011;6703;51.994;7.570;2023-10-31T01:19:36;5.97;;;3.97;;
13269;SDS011;6703;51.994;7.570;2023-10-31T01:22:05;7.00;;;3.90;;
13269;SDS011;6703;51.994;7.570;2023-10-31T01:24:34;6.28;;;4.10;;
13269;SDS011;6703;51.994;7.570;2023-10-31T01:27:04;9.45;;;4.70;;
13269;SDS011;6703;51.994;7.570;2023-10-31T01:29:32;7.65;;;4.55;;
13269;SDS011;6703;51.994;7.570;2023-10-31T01:32:01;7.60;;;4.85;;
13269;SDS011;6703;51.994;7.570;2023-10-31T01:34:38;7.18;;;4.53;;
13269;SDS011;6703;51.994;7.570;2023-10-31T01:37:07;7.07;;;3.67;;
13269;SDS011;6703;51.994;7.570;2023-10-31T01:39:35;5.18;;;3.38;;
13269;SDS011;6703;51.994;7.570;2023-10-31T01:42:05;4.93;;;3.13;;
13269;SDS011;6703;51.994;7.570;2023-10-31T01:44:34;5.22;;;3.22;;
13269;SDS011;6703;51.994;7.570;2023-10-31T01:47:02;5.45;;;2.78;;
13269;SDS011;6703;51.994;7.570;2023-10-31T01:49:30;5.22;;;2.72;;
13269;SDS011;6703;51.994;7.570;2023-10-31T01:51:59;4.63;;;2.87;;
13269;SDS011;6703;51.994;7.570;2023-10-31T01:54:28;4.30;;;2.45;;
13269;SDS011;6703;51.994;7.570;2023-10-31T01:56:56;6.60;;;2.10;;
13269;SDS011;6703;51.994;7.570;2023-10-31T01:59:26;2.20;;;1.48;;
13269;SDS011;6703;51.994;7.570;2023-10-31T02:01:55;1.92;;;1.35;;
13269;SDS011;6703;51.994;7.570;2023-10-31T02:04:23;3.53;;;1.42;;
13269;SDS011;6703;51.994;7.570;2023-10-31T02:06:52;2.15;;;1.40;;
13269;SDS011;6703;51.994;7.570;2023-10-31T02:09:19;2.00;;;1.10;;
13269;SDS011;6703;51.994;7.570;2023-10-31T02:11:51;2.42;;;1.40;;
13269;SDS011;6703;51.994;7.570;2023-10-31T02:14:19;2.72;;;0.93;;
13269;SDS011;6703;51.994;7.570;2023-10-31T02:16:48;1.60;;;0.80;;
13269;SDS011;6703;51.994;7.570;2023-10-31T02:19:17;0.60;;;0.50;;
13269;SDS011;6703;51.994;7.570;2023-10-31T02:21:48;1.20;;;0.63;;
13269;SDS011;6703;51.994;7.570;2023-10-31T02:24:16;0.40;;;0.40;;
13269;SDS011;6703;51.994;7.570;2023-10-31T02:26:44;0.30;;;0.30;;
13269;SDS011;6703;51.994;7.570;2023-10-31T02:29:12;0.40;;;0.30;;
13269;SDS011;6703;51.994;7.570;2023-10-31T02:31:40;0.70;;;0.30;;
13269;SDS011;6703;51.994;7.570;2023-10-31T02:34:08;0.50;;;0.25;;
13269;SDS011;6703;51.994;7.570;2023-10-31T02:36:36;0.22;;;0.20;;
13269;SDS011;6703;51.994;7.570;2023-10-31T02:39:06;1.50;;;0.30;;
13269;SDS011;6703;51.994;7.570;2023-10-31T02:41:34;0.20;;;0.20;;
13269;SDS011;6703;51.994;7.570;2023-10-31T02:44:02;0.30;;;0.10;;
13269;SDS011;6703;51.994;7.570;2023-10-31T02:46:30;1.40;;;0.40;;
13269;SDS011;6703;51.994;7.570;2023-10-31T02:48:58;1.52;;;0.30;;
13269;SDS011;6703;51.994;7.570;2023-10-31T02:51:26;2.22;;;0.20;;
13269;SDS011;6703;51.994;7.570;2023-10-31T02:53:54;0.80;;;0.50;;
13269;SDS011;6703;51.994;7.570;2023-10-31T02:56:23;0.30;;;0.30;;
13269;SDS011;6703;51.994;7.570;2023-10-31T02:58:52;2.17;;;0.47;;
13269;SDS011;6703;51.994;7.570;2023-10-31T03:01:20;1.00;;;0.40;;
13269;SDS011;6703;51.994;7.570;2023-10-31T03:03:49;1.70;;;0.50;;
13269;SDS011;6703;51.994;7.570;2023-10-31T03:06:17;4.93;;;0.70;;
13269;SDS011;6703;51.994;7.570;2023-10-31T03:08:45;3.03;;;0.73;;
13269;SDS011;6703;51.994;7.570;2023-10-31T03:11:20;3.05;;;0.77;;
13269;SDS011;6703;51.994;7.570;2023-10-31T03:13:50;2.55;;;1.00;;
13269;SDS011;6703;51.994;7.570;2023-10-31T03:16:19;1.40;;;1.00;;
13269;SDS011;6703;51.994;7.570;2023-10-31T03:18:47;3.08;;;1.10;;
13269;SDS011;6703;51.994;7.570;2023-10-31T03:21:16;3.80;;;1.10;;
13269;SDS011;6703;51.994;7.570;2023-10-31T03:23:46;4.18;;;1.58;;
13269;SDS011;6703;51.994;7.570;2023-10-31T03:26:15;3.40;;;1.40;;
13269;SDS011;6703;51.994;7.570;2023-10-31T03:28:44;2.72;;;1.50;;
13269;SDS011;6703;51.994;7.570;2023-10-31T03:31:13;5.70;;;1.95;;
13269;SDS011;6703;51.994;7.570;2023-10-31T03:33:41;4.28;;;2.28;;
13269;SDS011;6703;51.994;7.570;2023-10-31T03:36:10;3.95;;;2.28;;
13269;SDS011;6703;51.994;7.570;2023-10-31T03:38:37;6.18;;;2.90;;
13269;SDS011;6703;51.994;7.570;2023-10-31T03:41:06;7.90;;;3.47;;
13269;SDS011;6703;51.994;7.570;2023-10-31T03:43:34;6.97;;;3.33;;
13269;SDS011;6703;51.994;7.570;2023-10-31T03:46:04;7.38;;;3.40;;
13269;SDS011;6703;51.994;7.570;2023-10-31T03:48:32;8.45;;;3.78;;
13269;SDS011;6703;51.994;7.570;2023-10-31T03:51:00;9.23;;;4.00;;
13269;SDS011;6703;51.994;7.570;2023-10-31T03:53:28;9.93;;;4.20;;
13269;SDS011;6703;51.994;7.570;2023-10-31T03:55:58;11.43;;;3.88;;
13269;SDS011;6703;51.994;7.570;2023-10-31T03:58:26;7.25;;;3.65;;
13269;SDS011;6703;51.994;7.570;2023-10-31T04:00:55;11.30;;;3.65;;
13269;SDS011;6703;51.994;7.570;2023-10-31T04:03:24;10.70;;;4.75;;
13269;SDS011;6703;51.994;7.570;2023-10-31T04:05:52;7.07;;;4.57;;
13269;SDS011;6703;51.994;7.570;2023-10-31T04:08:20;10.82;;;4.95;;
13269;SDS011;6703;51.994;7.570;2023-10-31T04:10:48;9.37;;;5.17;;
13269;SDS011;6703;51.994;7.570;2023-10-31T04:13:16;13.25;;;5.63;;
13269;SDS011;6703;51.994;7.570;2023-10-31T04:15:44;8.93;;;5.45;;
13269;SDS011;6703;51.994;7.570;2023-10-31T04:18:12;12.13;;;6.53;;
13269;SDS011;6703;51.994;7.570;2023-10-31T04:20:42;15.52;;;7.53;;
13269;SDS011;6703;51.994;7.570;2023-10-31T04:23:10;12.38;;;7.43;;
13269;SDS011;6703;51.994;7.570;2023-10-31T04:25:39;15.02;;;7.85;;
13269;SDS011;6703;51.994;7.570;2023-10-31T04:28:06;17.70;;;9.17;;
13269;SDS011;6703;51.994;7.570;2023-10-31T04:30:35;19.77;;;9.38;;
13269;SDS011;6703;51.994;7.570;2023-10-31T04:33:03;17.60;;;9.30;;
13269;SDS011;6703;51.994;7.570;2023-10-31T04:35:31;19.52;;;9.90;;
13269;SDS011;6703;51.994;7.570;2023-10-31T04:38:00;19.63;;;9.55;;
13269;SDS011;6703;51.994;7.570;2023-10-31T04:40:29;19.63;;;10.02;;
13269;SDS011;6703;51.994;7.570;2023-10-31T04:42:57;21.33;;;10.00;;
13269;SDS011;6703;51.994;7.570;2023-10-31T04:45:25;20.25;;;10.77;;
13269;SDS011;6703;51.994;7.570;2023-10-31T04:47:53;22.27;;;9.50;;
13269;SDS011;6703;51.994;7.570;2023-10-31T04:50:20;24.48;;;10.50;;
13269;SDS011;6703;51.994;7.570;2023-10-31T04:52:48;18.80;;;9.48;;
13269;SDS011;6703;51.994;7.570;2023-10-31T04:55:19;17.95;;;9.15;;
13269;SDS011;6703;51.994;7.570;2023-10-31T04:57:47;17.65;;;9.98;;
13269;SDS011;6703;51.994;7.570;2023-10-31T05:00:15;18.13;;;9.93;;
13269;SDS011;6703;51.994;7.570;2023-10-31T05:02:44;22.08;;;10.27;;
13269;SDS011;6703;51.994;7.570;2023-10-31T05:05:11;20.85;;;10.07;;
13269;SDS011;6703;51.994;7.570;2023-10-31T05:07:40;21.83;;;10.37;;
13269;SDS011;6703;51.994;7.570;2023-10-31T05:10:08;21.15;;;9.95;;
13269;SDS011;6703;51.994;7.570;2023-10-31T05:12:39;20.10;;;8.93;;
13269;SDS011;6703;51.994;7.570;2023-10-31T05:15:07;20.20;;;8.65;;
13269;SDS011;6703;51.994;7.570;2023-10-31T05:17:36;20.52;;;8.45;;
13269;SDS011;6703;51.994;7.570;2023-10-31T05:20:04;21.50;;;8.15;;
13269;SDS011;6703;51.994;7.570;2023-10-31T05:22:33;22.42;;;8.45;;
13269;SDS011;6703;51.994;7.570;2023-10-31T05:25:01;19.75;;;8.23;;
13269;SDS011;6703;51.994;7.570;2023-10-31T05:27:29;21.20;;;9.20;;
13269;SDS011;6703;51.994;7.570;2023-10-31T05:30:01;19.88;;;8.05;;
13269;SDS011;6703;51.994;7.570;2023-10-31T05:32:29;17.05;;;7.80;;
13269;SDS011;6703;51.994;7.570;2023-10-31T05:34:58;0.10;;;0.10;;
13269;SDS011;6703;51.994;7.570;2023-10-31T05:37:26;0.20;;;0.20;;
13269;SDS011;6703;51.994;7.570;2023-10-31T05:39:54;2.35;;;0.55;;
13269;SDS011;6703;51.994;7.570;2023-10-31T05:42:22;0.00;;;0.00;;
13269;SDS011;6703;51.994;7.570;2023-10-31T05:44:51;2.70;;;1.00;;
13269;SDS011;6703;51.994;7.570;2023-10-31T05:47:20;0.10;;;0.10;;
13269;SDS011;6703;51.994;7.570;2023-10-31T05:49:49;0.20;;;0.20;;
13269;SDS011;6703;51.994;7.570;2023-10-31T05:52:17;0.00;;;0.00;;
13269;SDS011;6703;51.994;7.570;2023-10-31T05:54:45;0.10;;;0.10;;
13269;SDS011;6703;51.994;7.570;2023-10-31T05:57:13;0.50;;;0.50;;
13269;SDS011;6703;51.994;7.570;2023-10-31T05:59:41;0.80;;;0.50;;
13269;SDS011;6703;51.994;7.570;2023-10-31T06:02:08;0.10;;;0.10;;
13269;SDS011;6703;51.994;7.570;2023-10-31T06:04:38;0.00;;;0.00;;
13269;SDS011;6703;51.994;7.570;2023-10-31T06:07:06;1.30;;;0.50;;
13269;SDS011;6703;51.994;7.570;2023-10-31T06:09:35;0.10;;;0.10;;
13269;SDS011;6703;51.994;7.570;2023-10-31T06:12:03;0.10;;;0.10;;
13269;SDS011;6703;51.994;7.570;2023-10-31T06:14:32;0.28;;;0.28;;
13269;SDS011;6703;51.994;7.570;2023-10-31T06:17:00;0.05;;;0.05;;
13269;SDS011;6703;51.994;7.570;2023-10-31T06:19:28;0.00;;;0.00;;
13269;SDS011;6703;51.994;7.570;2023-10-31T06:21:57;0.20;;;0.20;;
13269;SDS011;6703;51.994;7.570;2023-10-31T06:24:25;0.10;;;0.10;;
13269;SDS011;6703;51.994;7.570;2023-10-31T06:26:56;0.00;;;0.00;;
13269;SDS011;6703;51.994;7.570;2023-10-31T06:29:24;0.30;;;0.30;;
13269;SDS011;6703;51.994;7.570;2023-10-31T06:32:13;0.10;;;0.10;;
13269;SDS011;6703;51.994;7.570;2023-10-31T06:34:41;0.55;;;0.50;;
13269;SDS011;6703;51.994;7.570;2023-10-31T06:37:10;0.00;;;0.00;;
13269;SDS011;6703;51.994;7.570;2023-10-31T06:39:40;0.57;;;0.47;;
13269;SDS011;6703;51.994;7.570;2023-10-31T06:42:08;0.00;;;0.00;;
13269;SDS011;6703;51.994;7.570;2023-10-31T06:44:36;0.20;;;0.20;;
13269;SDS011;6703;51.994;7.570;2023-10-31T06:47:04;0.00;;;0.00;;
13269;SDS011;6703;51.994;7.570;2023-10-31T06:49:33;0.00;;;0.00;;
13269;SDS011;6703;51.994;7.570;2023-10-31T06:52:04;0.00;;;0.00;;
13269;SDS011;6703;51.994;7.570;2023-10-31T06:54:35;0.00;;;0.00;;
13269;SDS011;6703;51.994;7.570;2023-10-31T06:57:02;0.00;;;0.00;;
13269;SDS011;6703;51.994;7.570;2023-10-31T06:59:31;0.00;;;0.00;;
13269;SDS011;6703;51.994;7.570;2023-10-31T07:01:59;0.00;;;0.00;;
13269;SDS011;6703;51.994;7.570;2023-10-31T07:07:03;0.20;;;0.20;;
13269;SDS011;6703;51.994;7.570;2023-10-31T07:09:35;0.00;;;0.00;;
13269;SDS011;6703;51.994;7.570;2023-10-31T07:12:02;0.00;;;0.00;;
13269;SDS011;6703;51.994;7.570;2023-10-31T07:14:31;0.00;;;0.00;;
13269;SDS011;6703;51.994;7.570;2023-10-31T07:16:59;0.00;;;0.00;;
13269;SDS011;6703;51.994;7.570;2023-10-31T07:19:27;0.00;;;0.00;;
13269;SDS011;6703;51.994;7.570;2023-10-31T07:21:55;0.00;;;0.00;;
13269;SDS011;6703;51.994;7.570;2023-10-31T07:24:23;0.20;;;0.20;;
13269;SDS011;6703;51.994;7.570;2023-10-31T07:26:54;0.00;;;0.00;;
13269;SDS011;6703;51.994;7.570;2023-10-31T07:29:22;0.00;;;0.00;;
13269;SDS011;6703;51.994;7.570;2023-10-31T07:31:50;0.00;;;0.00;;
13269;SDS011;6703;51.994;7.570;2023-10-31T07:34:18;0.00;;;0.00;;
13269;SDS011;6703;51.994;7.570;2023-10-31T07:36:46;0.00;;;0.00;;
13269;SDS011;6703;51.994;7.570;2023-10-31T07:39:14;0.00;;;0.00;;
13269;SDS011;6703;51.994;7.570;2023-10-31T07:41:43;0.00;;;0.00;;
13269;SDS011;6703;51.994;7.570;2023-10-31T07:44:12;0.30;;;0.20;;
13269;SDS011;6703;51.994;7.570;2023-10-31T07:46:40;0.00;;;0.00;;
13269;SDS011;6703;51.994;7.570;2023-10-31T07:49:08;1.20;;;1.00;;
13269;SDS011;6703;51.994;7.570;2023-10-31T07:51:36;0.00;;;0.00;;
13269;SDS011;6703;51.994;7.570;2023-10-31T07:54:04;0.00;;;0.00;;
13269;SDS011;6703;51.994;7.570;2023-10-31T07:56:33;0.00;;;0.00;;
13269;SDS011;6703;51.994;7.570;2023-10-31T07:59:02;0.00;;;0.00;;
13269;SDS011;6703;51.994;7.570;2023-10-31T08:01:32;0.00;;;0.00;;
13269;SDS011;6703;51.994;7.570;2023-10-31T08:04:00;0.00;;;0.00;;
13269;SDS011;6703;51.994;7.570;2023-10-31T08:06:28;0.08;;;0.08;;
13269;SDS011;6703;51.994;7.570;2023-10-31T08:08:56;0.00;;;0.00;;
13269;SDS011;6703;51.994;7.570;2023-10-31T08:11:24;0.00;;;0.00;;
13269;SDS011;6703;51.994;7.570;2023-10-31T08:13:52;0.05;;;0.05;;
13269;SDS011;6703;51.994;7.570;2023-10-31T08:16:20;0.00;;;0.00;;
13269;SDS011;6703;51.994;7.570;2023-10-31T08:18:50;0.00;;;0.00;;
13269;SDS011;6703;51.994;7.570;2023-10-31T08:21:19;0.00;;;0.00;;
13269;SDS011;6703;51.994;7.570;2023-10-31T08:23:47;0.10;;;0.10;;
13269;SDS011;6703;51.994;7.570;2023-10-31T08:26:16;0.10;;;0.10;;
13269;SDS011;6703;51.994;7.570;2023-10-31T08:28:44;0.20;;;0.20;;
13269;SDS011;6703;51.994;7.570;2023-10-31T08:31:23;0.00;;;0.00;;
13269;SDS011;6703;51.994;7.570;2023-10-31T08:33:52;0.00;;;0.00;;
13269;SDS011;6703;51.994;7.570;2023-10-31T08:36:21;0.00;;;0.00;;
13269;SDS011;6703;51.994;7.570;2023-10-31T08:38:49;0.00;;;0.00;;
13269;SDS011;6703;51.994;7.570;2023-10-31T08:41:18;0.30;;;0.30;;
13269;SDS011;6703;51.994;7.570;2023-10-31T08:43:47;0.40;;;0.40;;
13269;SDS011;6703;51.994;7.570;2023-10-31T08:46:15;0.30;;;0.30;;
13269;SDS011;6703;51.994;7.570;2023-10-31T08:48:43;0.00;;;0.00;;
13269;SDS011;6703;51.994;7.570;2023-10-31T08:51:12;0.00;;;0.00;;
13269;SDS011;6703;51.994;7.570;2023-10-31T08:53:40;0.00;;;0.00;;
13269;SDS011;6703;51.994;7.570;2023-10-31T08:56:07;0.00;;;0.00;;
13269;SDS011;6703;51.994;7.570;2023-10-31T08:58:35;0.00;;;0.00;;
13269;SDS011;6703;51.994;7.570;2023-10-31T09:01:03;0.03;;;0.03;;
13269;SDS011;6703;51.994;7.570;2023-10-31T09:03:32;1.80;;;0.77;;
13269;SDS011;6703;51.994;7.570;2023-10-31T09:06:00;0.00;;;0.00;;
13269;SDS011;6703;51.994;7.570;2023-10-31T09:08:30;0.00;;;0.00;;
13269;SDS011;6703;51.994;7.570;2023-10-31T09:10:57;0.00;;;0.00;;
13269;SDS011;6703;51.994;7.570;2023-10-31T09:13:26;0.00;;;0.00;;
13269;SDS011;6703;51.994;7.570;2023-10-31T09:15:55;0.10;;;0.10;;
13269;SDS011;6703;51.994;7.570;2023-10-31T09:18:23;0.00;;;0.00;;
13269;SDS011;6703;51.994;7.570;2023-10-31T09:20:51;2.80;;;0.70;;
13269;SDS011;6703;51.994;7.570;2023-10-31T09:23:19;0.00;;;0.00;;
13269;SDS011;6703;51.994;7.570;2023-10-31T09:25:49;1.60;;;0.70;;
13269;SDS011;6703;51.994;7.570;2023-10-31T09:28:17;0.60;;;0.30;;
13269;SDS011;6703;51.994;7.570;2023-10-31T09:30:45;0.10;;;0.10;;
13269;SDS011;6703;51.994;7.570;2023-10-31T09:33:13;0.10;;;0.10;;
13269;SDS011;6703;51.994;7.570;2023-10-31T09:35:41;0.30;;;0.30;;
13269;SDS011;6703;51.994;7.570;2023-10-31T09:38:09;0.20;;;0.20;;
13269;SDS011;6703;51.994;7.570;2023-10-31T09:40:38;0.20;;;0.20;;
13269;SDS011;6703;51.994;7.570;2023-10-31T09:43:07;0.00;;;0.00;;
13269;SDS011;6703;51.994;7.570;2023-10-31T09:45:36;0.05;;;0.05;;
13269;SDS011;6703;51.994;7.570;2023-10-31T09:50:49;0.00;;;0.00;;
13269;SDS011;6703;51.994;7.570;2023-10-31T09:53:19;0.80;;;0.60;;
13269;SDS011;6703;51.994;7.570;2023-10-31T09:55:47;0.00;;;0.00;;
13269;SDS011;6703;51.994;7.570;2023-10-31T09:58:17;4.47;;;0.87;;
13269;SDS011;6703;51.994;7.570;2023-10-31T10:00:45;0.00;;;0.00;;
13269;SDS011;6703;51.994;7.570;2023-10-31T10:03:13;0.10;;;0.10;;
13269;SDS011;6703;51.994;7.570;2023-10-31T10:05:43;0.00;;;0.00;;
13269;SDS011;6703;51.994;7.570;2023-10-31T10:08:11;0.68;;;0.28;;
13269;SDS011;6703;51.994;7.570;2023-10-31T10:10:40;0.50;;;0.50;;
13269;SDS011;6703;51.994;7.570;2023-10-31T10:13:07;0.50;;;0.40;;
13269;SDS011;6703;51.994;7.570;2023-10-31T10:15:46;0.20;;;0.20;;
13269;SDS011;6703;51.994;7.570;2023-10-31T10:18:28;0.50;;;0.40;;
13269;SDS011;6703;51.994;7.570;2023-10-31T10:20:58;0.20;;;0.20;;
13269;SDS011;6703;51.994;7.570;2023-10-31T10:23:27;7.00;;;1.30;;
13269;SDS011;6703;51.994;7.570;2023-10-31T10:26:01;0.13;;;0.10;;
13269;SDS011;6703;51.994;7.570;2023-10-31T10:28:29;0.80;;;0.60;;
13269;SDS011;6703;51.994;7.570;2023-10-31T10:31:01;0.00;;;0.00;;
13269;SDS011;6703;51.994;7.570;2023-10-31T10:33:30;0.30;;;0.30;;
13269;SDS011;6703;51.994;7.570;2023-10-31T10:35:57;0.10;;;0.10;;
13269;SDS011;6703;51.994;7.570;2023-10-31T10:38:26;0.00;;;0.00;;
13269;SDS011;6703;51.994;7.570;2023-10-31T10:40:57;1.00;;;0.40;;
13269;SDS011;6703;51.994;7.570;2023-10-31T10:43:25;0.30;;;0.30;;
13269;SDS011;6703;51.994;7.570;2023-10-31T10:45:54;0.00;;;0.00;;
13269;SDS011;6703;51.994;7.570;2023-10-31T10:48:45;0.30;;;0.30;;
13269;SDS011;6703;51.994;7.570;2023-10-31T10:51:14;0.00;;;0.00;;
13269;SDS011;6703;51.994;7.570;2023-10-31T10:53:48;2.90;;;0.60;;
13269;SDS011;6703;51.994;7.570;2023-10-31T10:56:19;0.10;;;0.10;;
13269;SDS011;6703;51.994;7.570;2023-10-31T10:58:50;0.00;;;0.00;;
13269;SDS011;6703;51.994;7.570;2023-10-31T11:01:20;0.20;;;0.20;;
13269;SDS011;6703;51.994;7.570;2023-10-31T11:03:50;0.40;;;0.40;;
13269;SDS011;6703;51.994;7.570;2023-10-31T11:06:19;0.95;;;0.40;;
13269;SDS011;6703;51.994;7.570;2023-10-31T11:08:47;0.00;;;0.00;;
13269;SDS011;6703;51.994;7.570;2023-10-31T11:11:16;0.00;;;0.00;;
13269;SDS011;6703;51.994;7.570;2023-10-31T11:13:47;0.50;;;0.15;;
13269;SDS011;6703;51.994;7.570;2023-10-31T11:16:16;0.00;;;0.00;;
13269;SDS011;6703;51.994;7.570;2023-10-31T11:18:45;0.50;;;0.50;;
13269;SDS011;6703;51.994;7.570;2023-10-31T11:21:16;0.20;;;0.20;;
13269;SDS011;6703;51.994;7.570;2023-10-31T11:23:43;0.00;;;0.00;;
13269;SDS011;6703;51.994;7.570;2023-10-31T11:26:11;0.60;;;0.10;;
13269;SDS011;6703;51.994;7.570;2023-10-31T11:28:39;0.00;;;0.00;;
13269;SDS011;6703;51.994;7.570;2023-10-31T11:33:53;0.05;;;0.05;;
13269;SDS011;6703;51.994;7.570;2023-10-31T11:36:23;0.10;;;0.10;;
13269;SDS011;6703;51.994;7.570;2023-10-31T11:39:26;0.00;;;0.00;;
13269;SDS011;6703;51.994;7.570;2023-10-31T11:41:55;0.00;;;0.00;;
13269;SDS011;6703;51.994;7.570;2023-10-31T11:44:23;0.00;;;0.00;;
13269;SDS011;6703;51.994;7.570;2023-10-31T11:46:57;0.00;;;0.00;;
13269;SDS011;6703;51.994;7.570;2023-10-31T11:49:45;0.00;;;0.00;;
13269;SDS011;6703;51.994;7.570;2023-10-31T11:52:16;0.30;;;0.30;;
13269;SDS011;6703;51.994;7.570;2023-10-31T11:54:45;0.20;;;0.20;;
13269;SDS011;6703;51.994;7.570;2023-10-31T11:57:25;0.00;;;0.00;;
13269;SDS011;6703;51.994;7.570;2023-10-31T11:59:54;1.50;;;0.40;;
13269;SDS011;6703;51.994;7.570;2023-10-31T12:02:22;0.22;;;0.22;;
13269;SDS011;6703;51.994;7.570;2023-10-31T12:04:49;0.00;;;0.00;;
13269;SDS011;6703;51.994;7.570;2023-10-31T12:07:26;0.00;;;0.00;;
13269;SDS011;6703;51.994;7.570;2023-10-31T12:09:53;0.00;;;0.00;;
13269;SDS011;6703;51.994;7.570;2023-10-31T12:12:30;0.00;;;0.00;;
13269;SDS011;6703;51.994;7.570;2023-10-31T12:15:04;0.38;;;0.38;;
13269;SDS011;6703;51.994;7.570;2023-10-31T12:17:33;0.10;;;0.10;;
13269;SDS011;6703;51.994;7.570;2023-10-31T12:20:05;0.10;;;0.10;;
13269;SDS011;6703;51.994;7.570;2023-10-31T12:22:35;0.30;;;0.30;;
13269;SDS011;6703;51.994;7.570;2023-10-31T12:25:04;0.00;;;0.00;;
13269;SDS011;6703;51.994;7.570;2023-10-31T12:27:43;0.00;;;0.00;;
13269;SDS011;6703;51.994;7.570;2023-10-31T12:30:13;0.00;;;0.00;;
13269;SDS011;6703;51.994;7.570;2023-10-31T12:32:44;0.00;;;0.00;;
13269;SDS011;6703;51.994;7.570;2023-10-31T12:38:01;0.00;;;0.00;;
13269;SDS011;6703;51.994;7.570;2023-10-31T12:40:29;0.00;;;0.00;;
13269;SDS011;6703;51.994;7.570;2023-10-31T12:42:57;0.10;;;0.10;;
13269;SDS011;6703;51.994;7.570;2023-10-31T12:45:26;0.00;;;0.00;;
13269;SDS011;6703;51.994;7.570;2023-10-31T12:48:01;0.20;;;0.20;;
13269;SDS011;6703;51.994;7.570;2023-10-31T12:50:31;0.00;;;0.00;;
13269;SDS011;6703;51.994;7.570;2023-10-31T12:53:00;0.00;;;0.00;;
13269;SDS011;6703;51.994;7.570;2023-10-31T12:55:30;0.00;;;0.00;;
13269;SDS011;6703;51.994;7.570;2023-10-31T12:57:58;0.00;;;0.00;;
13269;SDS011;6703;51.994;7.570;2023-10-31T13:00:30;0.13;;;0.13;;
13269;SDS011;6703;51.994;7.570;2023-10-31T13:02:59;0.20;;;0.20;;
13269;SDS011;6703;51.994;7.570;2023-10-31T13:05:28;0.00;;;0.00;;
13269;SDS011;6703;51.994;7.570;2023-10-31T13:07:56;0.40;;;0.40;;
13269;SDS011;6703;51.994;7.570;2023-10-31T13:10:29;0.10;;;0.10;;
13269;SDS011;6703;51.994;7.570;2023-10-31T13:12:58;0.00;;;0.00;;
13269;SDS011;6703;51.994;7.570;2023-10-31T13:15:28;0.10;;;0.10;;
13269;SDS011;6703;51.994;7.570;2023-10-31T13:17:55;0.00;;;0.00;;
13269;SDS011;6703;51.994;7.570;2023-10-31T13:20:23;0.10;;;0.10;;
13269;SDS011;6703;51.994;7.570;2023-10-31T13:22:52;0.00;;;0.00;;
13269;SDS011;6703;51.994;7.570;2023-10-31T13:25:19;0.50;;;0.50;;
13269;SDS011;6703;51.994;7.570;2023-10-31T13:27:49;0.00;;;0.00;;
13269;SDS011;6703;51.994;7.570;2023-10-31T13:30:20;0.00;;;0.00;;
13269;SDS011;6703;51.994;7.570;2023-10-31T13:32:50;0.10;;;0.10;;
13269;SDS011;6703;51.994;7.570;2023-10-31T13:35:19;0.70;;;0.70;;
13269;SDS011;6703;51.994;7.570;2023-10-31T13:37:47;0.10;;;0.10;;
13269;SDS011;6703;51.994;7.570;2023-10-31T13:40:16;0.90;;;0.50;;
13269;SDS011;6703;51.994;7.570;2023-10-31T13:42:43;0.30;;;0.30;;
13269;SDS011;6703;51.994;7.570;2023-10-31T13:45:13;0.20;;;0.20;;
13269;SDS011;6703;51.994;7.570;2023-10-31T13:47:41;0.15;;;0.15;;
13269;SDS011;6703;51.994;7.570;2023-10-31T13:50:08;0.00;;;0.00;;
13269;SDS011;6703;51.994;7.570;2023-10-31T13:55:12;0.00;;;0.00;;
13269;SDS011;6703;51.994;7.570;2023-10-31T13:57:41;0.05;;;0.05;;
13269;SDS011;6703;51.994;7.570;2023-10-31T14:00:09;0.20;;;0.20;;
13269;SDS011;6703;51.994;7.570;2023-10-31T14:02:39;1.00;;;0.40;;
13269;SDS011;6703;51.994;7.570;2023-10-31T14:05:08;0.10;;;0.10;;
13269;SDS011;6703;51.994;7.570;2023-10-31T14:07:37;2.50;;;0.30;;
13269;SDS011;6703;51.994;7.570;2023-10-31T14:10:05;0.00;;;0.00;;
13269;SDS011;6703;51.994;7.570;2023-10-31T14:12:33;0.00;;;0.00;;
13269;SDS011;6703;51.994;7.570;2023-10-31T14:15:02;0.00;;;0.00;;
13269;SDS011;6703;51.994;7.570;2023-10-31T14:17:30;0.30;;;0.30;;
13269;SDS011;6703;51.994;7.570;2023-10-31T14:20:00;0.00;;;0.00;;
13269;SDS011;6703;51.994;7.570;2023-10-31T14:22:28;0.00;;;0.00;;
13269;SDS011;6703;51.994;7.570;2023-10-31T14:24:57;0.88;;;0.50;;
13269;SDS011;6703;51.994;7.570;2023-10-31T14:27:24;0.00;;;0.00;;
13269;SDS011;6703;51.994;7.570;2023-10-31T14:29:53;0.00;;;0.00;;
13269;SDS011;6703;51.994;7.570;2023-10-31T14:32:21;1.70;;;0.40;;
13269;SDS011;6703;51.994;7.570;2023-10-31T14:34:49;0.00;;;0.00;;
13269;SDS011;6703;51.994;7.570;2023-10-31T14:37:18;0.00;;;0.00;;
13269;SDS011;6703;51.994;7.570;2023-10-31T14:39:47;0.00;;;0.00;;
13269;SDS011;6703;51.994;7.570;2023-10-31T14:42:14;0.00;;;0.00;;
13269;SDS011;6703;51.994;7.570;2023-10-31T14:44:43;0.00;;;0.00;;
13269;SDS011;6703;51.994;7.570;2023-10-31T14:47:10;0.00;;;0.00;;
13269;SDS011;6703;51.994;7.570;2023-10-31T14:49:39;0.00;;;0.00;;
13269;SDS011;6703;51.994;7.570;2023-10-31T14:52:06;0.00;;;0.00;;
13269;SDS011;6703;51.994;7.570;2023-10-31T14:54:37;1.38;;;0.82;;
13269;SDS011;6703;51.994;7.570;2023-10-31T14:57:05;0.00;;;0.00;;
13269;SDS011;6703;51.994;7.570;2023-10-31T14:59:33;2.70;;;1.00;;
13269;SDS011;6703;51.994;7.570;2023-10-31T15:02:00;0.20;;;0.20;;
13269;SDS011;6703;51.994;7.570;2023-10-31T15:04:29;0.20;;;0.20;;
13269;SDS011;6703;51.994;7.570;2023-10-31T15:06:56;0.40;;;0.30;;
13269;SDS011;6703;51.994;7.570;2023-10-31T15:09:24;0.00;;;0.00;;
13269;SDS011;6703;51.994;7.570;2023-10-31T15:14:29;0.60;;;0.40;;
13269;SDS011;6703;51.994;7.570;2023-10-31T15:16:58;0.30;;;0.30;;
13269;SDS011;6703;51.994;7.570;2023-10-31T15:19:26;0.10;;;0.10;;
13269;SDS011;6703;51.994;7.570;2023-10-31T15:21:54;0.10;;;0.10;;
13269;SDS011;6703;51.994;7.570;2023-10-31T15:24:22;2.60;;;0.50;;